Time;durP1;ratioP1;P1;durP2;ratioP2;P2;SDS_P1;SDS_P2;PMS_P1;PMS_P2;Temp;Humidity;BMP_temperature;BMP_pressure;BME280_temperature;BME280_humidity;BME280_pressure;Samples;Min_cycle;Max_cycle;Signal;HPM_P1;HPM_P2
2022/05/25 00:00:25;;;;;;;3.95;2.60;;;18.80;82.30;;;;;;5069207;28;20190;-73
2022/05/25 00:02:52;;;;;;;2.80;2.60;;;18.80;83.20;;;;;;5070612;28;20186;-73
2022/05/25 00:05:18;;;;;;;2.65;2.55;;;18.70;83.00;;;;;;5077172;28;20181;-73
2022/05/25 00:07:44;;;;;;;3.40;3.20;;;18.70;83.10;;;;;;5092774;28;20222;-74
2022/05/25 00:10:11;;;;;;;2.83;2.72;;;18.70;83.00;;;;;;5071499;28;20176;-73
2022/05/25 00:12:37;;;;;;;3.45;3.08;;;18.60;83.30;;;;;;5070722;28;20750;-73
2022/05/25 00:15:03;;;;;;;2.58;2.47;;;18.60;83.50;;;;;;5073098;28;20219;-73
2022/05/25 00:17:29;;;;;;;3.13;3.03;;;18.50;83.30;;;;;;5072052;28;20226;-73
2022/05/25 00:20:01;;;;;;;4.57;2.70;;;;;;;;;;5071196;28;20187;-73
2022/05/25 00:22:40;;;;;;;3.25;3.03;;;18.40;82.60;;;;;;5072348;28;20269;-73
2022/05/25 00:25:08;;;;;;;2.47;2.38;;;18.30;82.70;;;;;;5067815;28;20605;-73
2022/05/25 00:27:34;;;;;;;3.30;2.97;;;18.30;82.30;;;;;;5072728;28;20244;-73
2022/05/25 00:30:01;;;;;;;2.47;2.42;;;;;;;;;;5074478;28;20178;-74
2022/05/25 00:32:27;;;;;;;4.30;3.00;;;18.20;82.90;;;;;;5068489;28;20175;-74
2022/05/25 00:34:53;;;;;;;2.78;2.65;;;;;;;;;;5066320;28;20190;-73
2022/05/25 00:37:18;;;;;;;2.65;2.55;;;18.20;83.00;;;;;;5069182;28;20211;-74
2022/05/25 00:39:45;;;;;;;2.50;2.40;;;;;;;;;;5070601;28;20243;-74
2022/05/25 00:42:10;;;;;;;2.58;2.40;;;18.20;83.20;;;;;;5070821;28;20182;-74
2022/05/25 00:44:36;;;;;;;2.72;2.63;;;;;;;;;;5072161;28;20179;-74
2022/05/25 00:47:03;;;;;;;2.72;2.53;;;18.20;83.40;;;;;;5070790;28;20187;-74
2022/05/25 00:49:32;;;;;;;4.88;3.38;;;18.20;83.60;;;;;;5066586;28;20183;-73
2022/05/25 00:52:05;;;;;;;2.55;2.35;;;18.20;83.60;;;;;;5069702;28;20189;-73
2022/05/25 00:54:38;;;;;;;5.35;3.00;;;18.20;84.00;;;;;;5071811;28;20579;-73
2022/05/25 00:57:29;;;;;;;3.08;2.47;;;18.10;83.70;;;;;;5068067;28;20204;-73
2022/05/25 01:00:14;;;;;;;2.97;2.78;;;18.10;84.00;;;;;;5073462;28;20207;-73
2022/05/25 01:02:48;;;;;;;2.92;2.67;;;18.10;84.00;;;;;;5072087;28;20224;-73
2022/05/25 01:05:18;;;;;;;2.83;2.72;;;18.10;85.10;;;;;;5069388;28;20193;-73
2022/05/25 01:07:59;;;;;;;2.80;2.70;;;18.10;85.10;;;;;;5061555;28;20179;-74
2022/05/25 01:10:43;;;;;;;2.53;2.42;;;18.00;85.50;;;;;;5070380;28;20188;-73
2022/05/25 01:13:30;;;;;;;11.50;3.08;;;18.00;85.00;;;;;;5067934;28;20675;-73
2022/05/25 01:16:13;;;;;;;3.10;3.00;;;18.00;85.30;;;;;;5075020;28;20187;-72
2022/05/25 01:18:54;;;;;;;3.42;3.22;;;18.00;85.30;;;;;;5086890;28;20194;-74
2022/05/25 01:21:48;;;;;;;3.08;2.88;;;17.90;85.80;;;;;;5060457;28;20202;-74
2022/05/25 01:24:22;;;;;;;3.47;3.22;;;17.90;85.70;;;;;;5067851;28;20194;-74
2022/05/25 01:27:30;;;;;;;3.55;3.22;;;17.80;85.70;;;;;;5065760;28;20178;-74
2022/05/25 01:30:18;;;;;;;3.25;3.05;;;17.80;85.60;;;;;;5065923;28;20771;-74
2022/05/25 01:33:05;;;;;;;3.03;2.92;;;17.80;85.70;;;;;;5070382;28;20218;-74
2022/05/25 01:35:57;;;;;;;2.97;2.60;;;17.70;85.90;;;;;;5069525;28;20187;-74
2022/05/25 01:38:32;;;;;;;3.00;2.80;;;17.70;86.00;;;;;;5071989;28;20190;-74
2022/05/25 01:41:22;;;;;;;2.42;2.40;;;17.70;86.00;;;;;;5069301;28;20201;-74
2022/05/25 01:44:01;;;;;;;3.72;3.42;;;17.60;86.10;;;;;;5064850;28;20220;-74
2022/05/25 01:46:38;;;;;;;3.58;2.85;;;17.60;86.30;;;;;;5057196;28;20192;-74
2022/05/25 01:49:14;;;;;;;2.60;2.42;;;17.60;86.30;;;;;;5073764;28;20277;-74
2022/05/25 01:51:49;;;;;;;3.45;3.25;;;17.50;86.30;;;;;;5069372;28;20208;-73
2022/05/25 01:54:18;;;;;;;2.78;2.58;;;17.50;86.50;;;;;;5071716;28;20182;-72
2022/05/25 01:56:49;;;;;;;5.38;3.33;;;17.50;86.60;;;;;;5068876;28;20210;-73
2022/05/25 01:59:17;;;;;;;3.75;2.60;;;17.40;86.70;;;;;;5063630;28;20186;-73
2022/05/25 02:04:56;;;;;;;2.58;2.47;;;17.40;87.00;;;;;;5009689;28;21012;-72
2022/05/25 02:07:45;;;;;;;3.10;2.90;;;17.30;86.50;;;;;;5005834;28;20192;-72
2022/05/25 02:10:36;;;;;;;3.20;3.00;;;17.30;86.80;;;;;;5005818;28;20591;-74
2022/05/25 02:13:32;;;;;;;5.57;3.38;;;17.30;87.10;;;;;;5008618;28;20336;-72
2022/05/25 02:16:25;;;;;;;2.92;2.70;;;17.20;87.30;;;;;;5006290;28;20192;-72
2022/05/25 02:19:05;;;;;;;3.35;3.08;;;17.20;87.50;;;;;;5007959;28;20185;-72
2022/05/25 02:21:51;;;;;;;3.33;2.75;;;17.20;87.60;;;;;;5009016;28;20195;-73
2022/05/25 02:24:23;;;;;;;3.05;2.92;;;17.10;87.80;;;;;;5007387;28;20192;-73
2022/05/25 02:27:01;;;;;;;4.28;3.85;;;;;;;;;;5008563;28;20189;-74
2022/05/25 02:29:34;;;;;;;3.45;3.35;;;17.10;87.80;;;;;;5009068;28;20242;-74
2022/05/25 02:32:14;;;;;;;3.38;3.17;;;17.10;87.90;;;;;;5005489;28;20215;-74
2022/05/25 02:34:44;;;;;;;3.17;2.97;;;17.10;88.00;;;;;;5009040;28;20638;-74
2022/05/25 02:37:11;;;;;;;8.25;3.67;;;17.00;88.20;;;;;;5011126;28;20271;-74
2022/05/25 02:39:37;;;;;;;3.75;3.55;;;17.00;87.80;;;;;;5013699;28;20573;-74
2022/05/25 02:42:12;;;;;;;4.18;3.97;;;17.00;87.60;;;;;;5074784;28;20187;-74
2022/05/25 02:44:38;;;;;;;5.20;3.20;;;16.90;87.50;;;;;;5087671;28;20581;-74
2022/05/25 02:47:04;;;;;;;4.20;2.97;;;16.90;87.30;;;;;;5054837;28;20196;-74
2022/05/25 02:49:30;;;;;;;2.85;2.70;;;16.90;87.50;;;;;;5068635;28;20215;-73
2022/05/25 02:51:56;;;;;;;3.45;3.17;;;;;;;;;;5068473;28;20182;-72
2022/05/25 02:54:22;;;;;;;4.00;3.67;;;16.80;87.10;;;;;;5062808;28;20638;-72
2022/05/25 02:56:49;;;;;;;3.58;3.38;;;16.80;87.00;;;;;;5069495;28;20210;-73
2022/05/25 02:59:15;;;;;;;4.50;3.50;;;16.80;87.60;;;;;;5054243;28;20210;-73
2022/05/25 03:01:41;;;;;;;4.32;3.95;;;16.80;87.70;;;;;;5069667;28;20238;-73
2022/05/25 03:04:07;;;;;;;3.75;3.55;;;16.80;87.50;;;;;;5065297;28;20261;-73
2022/05/25 03:06:33;;;;;;;5.32;4.43;;;;;;;;;;5071776;28;20269;-73
2022/05/25 03:08:58;;;;;;;8.45;3.60;;;16.80;87.00;;;;;;5072470;28;20182;-73
2022/05/25 03:11:24;;;;;;;3.45;3.25;;;;;;;;;;5066305;28;20185;-73
2022/05/25 03:13:51;;;;;;;3.80;3.45;;;16.70;87.30;;;;;;5072279;28;20188;-73
2022/05/25 03:16:19;;;;;;;3.80;3.50;;;16.80;87.60;;;;;;5054291;28;20274;-73
2022/05/25 03:18:45;;;;;;;4.07;3.78;;;16.70;87.40;;;;;;5055608;28;20183;-73
2022/05/25 03:21:11;;;;;;;3.95;3.65;;;;;;;;;;5072128;28;20184;-73
2022/05/25 03:23:37;;;;;;;4.15;3.78;;;16.80;87.50;;;;;;5067867;28;20187;-73
2022/05/25 03:26:03;;;;;;;3.97;3.67;;;;;;;;;;5073323;28;20615;-73
2022/05/25 03:28:29;;;;;;;3.92;3.72;;;16.70;87.10;;;;;;5070278;28;20179;-73
2022/05/25 03:30:55;;;;;;;3.97;3.67;;;16.80;87.30;;;;;;5071382;28;20992;-73
2022/05/25 03:33:20;;;;;;;4.13;3.83;;;16.70;87.10;;;;;;5069705;28;20182;-73
2022/05/25 03:35:47;;;;;;;3.42;3.13;;;;;;;;;;5076534;28;20175;-74
2022/05/25 03:38:12;;;;;;;4.13;3.83;;;16.80;87.80;;;;;;5073063;28;20215;-73
2022/05/25 03:40:39;;;;;;;3.60;3.30;;;16.80;88.10;;;;;;5098094;28;20217;-73
2022/05/25 03:43:09;;;;;;;3.72;3.40;;;16.90;87.60;;;;;;5072408;28;20269;-73
2022/05/25 03:45:35;;;;;;;3.58;3.28;;;;;;;;;;5076016;28;20351;-73
2022/05/25 03:48:07;;;;;;;4.15;3.80;;;16.90;89.20;;;;;;5072148;28;20222;-73
2022/05/25 03:50:34;;;;;;;2.80;2.70;;;16.90;88.60;;;;;;5048401;28;20254;-73
2022/05/25 03:53:00;;;;;;;3.75;2.70;;;16.90;88.50;;;;;;5047484;28;20603;-73
2022/05/25 03:55:25;;;;;;;3.35;3.15;;;16.90;88.20;;;;;;5074853;28;20185;-73
2022/05/25 03:57:51;;;;;;;3.13;2.92;;;;;;;;;;5074540;28;20206;-73
2022/05/25 04:00:18;;;;;;;2.83;2.67;;;16.90;88.30;;;;;;5068229;28;20231;-73
2022/05/25 04:02:46;;;;;;;2.85;2.72;;;17.00;88.70;;;;;;5055549;28;20273;-73
2022/05/25 04:05:12;;;;;;;3.20;2.95;;;17.00;88.30;;;;;;5069786;28;20216;-74
2022/05/25 04:07:43;;;;;;;3.58;3.08;;;17.00;88.50;;;;;;5073439;28;20189;-74
2022/05/25 04:10:13;;;;;;;2.38;2.28;;;17.00;88.70;;;;;;5073658;28;20285;-73
2022/05/25 04:12:40;;;;;;;2.67;2.60;;;17.10;88.50;;;;;;5064696;28;20210;-73
2022/05/25 04:15:07;;;;;;;3.13;3.03;;;17.10;87.90;;;;;;5071900;28;20267;-73
2022/05/25 04:17:34;;;;;;;2.63;2.53;;;17.10;88.70;;;;;;5071931;28;20250;-73
2022/05/25 04:20:00;;;;;;;3.03;2.70;;;17.10;89.20;;;;;;5063239;28;20638;-74
2022/05/25 04:22:25;;;;;;;3.13;2.85;;;17.10;88.90;;;;;;5074276;28;20680;-74
2022/05/25 04:24:52;;;;;;;2.17;2.08;;;17.10;88.70;;;;;;5068471;28;20202;-73
2022/05/25 04:27:18;;;;;;;2.58;2.38;;;17.10;88.40;;;;;;5068602;28;20210;-72
2022/05/25 04:29:44;;;;;;;3.03;2.83;;;17.20;89.50;;;;;;5070899;28;20322;-73
2022/05/25 04:32:10;;;;;;;3.35;2.83;;;17.20;89.20;;;;;;5075252;28;20265;-73
2022/05/25 04:34:36;;;;;;;2.65;2.55;;;17.20;89.30;;;;;;5068603;28;20183;-73
2022/05/25 04:39:46;;;;;;;2.55;2.45;;;17.30;89.20;;;;;;5073921;28;20688;-73
2022/05/25 04:42:12;;;;;;;3.03;2.92;;;;;;;;;;5069204;28;20178;-73
2022/05/25 04:44:38;;;;;;;3.15;2.95;;;17.30;88.70;;;;;;5064578;28;20188;-71
2022/05/25 04:47:08;;;;;;;2.83;2.63;;;17.30;88.80;;;;;;5068204;28;20550;-73
2022/05/25 04:49:34;;;;;;;2.80;2.58;;;17.40;88.50;;;;;;5073555;28;20675;-72
2022/05/25 04:52:00;;;;;;;3.30;3.00;;;17.40;89.10;;;;;;5074011;28;20608;-73
2022/05/25 04:54:26;;;;;;;4.40;3.10;;;17.40;88.50;;;;;;5075026;28;20726;-73
2022/05/25 04:59:36;;;;;;;3.47;3.28;;;17.50;88.70;;;;;;5063747;28;20201;-73
2022/05/25 05:02:02;;;;;;;5.38;3.28;;;17.50;89.50;;;;;;5070715;28;20618;-73
2022/05/25 05:04:28;;;;;;;5.00;3.25;;;;;;;;;;5072404;28;20240;-75
2022/05/25 05:06:54;;;;;;;2.83;2.70;;;17.50;88.70;;;;;;5066705;28;20636;-75
2022/05/25 05:09:20;;;;;;;3.88;3.55;;;;;;;;;;5071907;28;20212;-76
2022/05/25 05:11:47;;;;;;;3.83;3.53;;;17.60;88.80;;;;;;5068754;28;20239;-75
2022/05/25 05:14:16;;;;;;;3.08;2.88;;;17.70;88.80;;;;;;5058469;28;20187;-75
2022/05/25 05:16:41;;;;;;;3.03;2.88;;;17.70;89.10;;;;;;5073071;28;20198;-76
2022/05/25 05:19:08;;;;;;;3.20;3.03;;;17.80;88.80;;;;;;5069802;28;20179;-76
2022/05/25 05:21:33;;;;;;;4.10;3.08;;;17.80;88.50;;;;;;5068481;28;20537;-76
2022/05/25 05:23:59;;;;;;;3.28;3.00;;;;;;;;;;5068883;28;20187;-75
2022/05/25 05:26:25;;;;;;;3.45;3.25;;;17.90;88.60;;;;;;5068835;28;20218;-76
2022/05/25 05:28:53;;;;;;;3.65;3.33;;;17.90;88.50;;;;;;5069326;28;20777;-77
2022/05/25 05:31:19;;;;;;;3.83;3.38;;;18.00;88.30;;;;;;5070180;28;20270;-78
2022/05/25 05:33:45;;;;;;;3.97;3.67;;;18.10;88.90;;;;;;5072150;28;20182;-75
2022/05/25 05:36:20;;;;;;;4.05;3.75;;;18.10;88.40;;;;;;5067493;28;20992;-75
2022/05/25 05:38:50;;;;;;;3.40;3.30;;;18.20;88.10;;;;;;5070369;28;20182;-76
2022/05/25 05:41:19;;;;;;;3.42;3.22;;;18.20;87.90;;;;;;5065197;28;20213;-76
2022/05/25 05:43:44;;;;;;;3.78;3.47;;;18.30;87.90;;;;;;5067990;28;20294;-77
2022/05/25 05:46:12;;;;;;;4.03;3.72;;;18.40;87.70;;;;;;5066900;28;20289;-76
2022/05/25 05:48:38;;;;;;;8.50;4.22;;;18.50;87.60;;;;;;5072506;28;20209;-75
2022/05/25 05:51:04;;;;;;;4.40;4.10;;;18.50;87.40;;;;;;5063246;28;20187;-75
2022/05/25 05:53:31;;;;;;;4.63;4.32;;;18.60;87.00;;;;;;5057141;28;20179;-72
2022/05/25 05:55:58;;;;;;;4.20;3.90;;;18.60;86.90;;;;;;5069272;28;20190;-72
2022/05/25 05:58:24;;;;;;;9.48;5.13;;;18.60;86.70;;;;;;5075090;28;20633;-73
2022/05/25 06:00:50;;;;;;;4.50;4.13;;;18.60;86.90;;;;;;5071751;28;20263;-72
2022/05/25 06:03:16;;;;;;;4.82;4.38;;;18.70;86.60;;;;;;5068796;28;20362;-73
2022/05/25 06:05:44;;;;;;;5.20;4.80;;;18.80;86.60;;;;;;5066014;28;20583;-73
2022/05/25 06:08:23;;;;;;;5.38;4.75;;;18.80;86.70;;;;;;5058717;28;20189;-72
2022/05/25 06:10:49;;;;;;;5.35;4.95;;;18.90;86.30;;;;;;5065105;28;20265;-72
2022/05/25 06:13:15;;;;;;;6.00;5.60;;;18.90;86.10;;;;;;5069593;28;20292;-71
2022/05/25 06:21:16;;;;;;;4.68;4.15;;;19.00;86.20;;;;;;5068739;28;20232;-71
2022/05/25 06:23:42;;;;;;;5.50;5.00;;;19.10;86.20;;;;;;5062662;28;20179;-72
2022/05/25 06:26:08;;;;;;;4.13;3.83;;;;;;;;;;5065975;28;20248;-72
2022/05/25 06:28:34;;;;;;;4.82;4.43;;;19.20;86.00;;;;;;5066999;28;20294;-72
2022/05/25 06:31:00;;;;;;;6.28;5.10;;;19.30;86.20;;;;;;5068724;28;20273;-72
2022/05/25 06:33:26;;;;;;;5.45;5.10;;;19.30;85.50;;;;;;5065651;28;20189;-71
2022/05/25 06:35:52;;;;;;;4.05;3.70;;;19.40;85.50;;;;;;5069156;28;20301;-72
2022/05/25 06:38:18;;;;;;;5.65;4.07;;;19.40;85.70;;;;;;5065556;28;20218;-72
2022/05/25 06:40:44;;;;;;;4.93;4.53;;;;;;;;;;5067126;28;20186;-72
2022/05/25 06:43:10;;;;;;;4.65;4.20;;;;;;;;;;5066961;28;20182;-71
2022/05/25 06:45:35;;;;;;;4.03;3.72;;;19.60;85.50;;;;;;5070519;28;20187;-72
2022/05/25 06:48:04;;;;;;;6.38;4.78;;;19.70;85.50;;;;;;5069838;28;20620;-72
2022/05/25 06:50:30;;;;;;;4.25;3.83;;;19.80;85.50;;;;;;5070094;28;20187;-72
2022/05/25 06:52:56;;;;;;;4.32;3.92;;;19.90;85.40;;;;;;5064311;28;20195;-71
2022/05/25 06:55:21;;;;;;;4.57;4.13;;;19.90;85.10;;;;;;5065873;28;20271;-73
2022/05/25 06:57:48;;;;;;;4.03;3.70;;;20.00;85.10;;;;;;5067415;28;20267;-72
2022/05/25 07:00:14;;;;;;;8.80;5.82;;;20.10;84.30;;;;;;5056695;28;20652;-72
2022/05/25 07:02:40;;;;;;;11.88;5.63;;;20.20;84.20;;;;;;5069030;28;20269;-74
2022/05/25 07:05:06;;;;;;;5.68;4.40;;;20.20;84.10;;;;;;5067417;28;20309;-72
2022/05/25 07:07:32;;;;;;;5.05;4.15;;;20.30;84.10;;;;;;5069267;28;20186;-73
2022/05/25 07:09:58;;;;;;;5.30;4.85;;;20.30;84.30;;;;;;5070048;28;20281;-72
2022/05/25 07:12:24;;;;;;;5.53;4.65;;;20.40;83.70;;;;;;5069299;28;20269;-72
2022/05/25 07:14:50;;;;;;;8.00;5.40;;;20.50;83.30;;;;;;5073846;28;20194;-72
2022/05/25 07:17:16;;;;;;;5.38;4.88;;;;;;;;;;5069344;28;20215;-72
2022/05/25 07:19:41;;;;;;;8.07;4.93;;;20.60;83.20;;;;;;5072777;28;20204;-72
2022/05/25 07:22:09;;;;;;;4.88;4.35;;;20.70;82.90;;;;;;5070310;28;20679;-72
2022/05/25 07:24:35;;;;;;;4.70;4.35;;;20.70;82.70;;;;;;5073712;28;20622;-73
2022/05/25 07:27:01;;;;;;;3.80;3.50;;;20.80;83.00;;;;;;5068414;28;20266;-71
2022/05/25 07:29:27;;;;;;;4.88;4.30;;;;;;;;;;5079041;28;20178;-71
2022/05/25 07:31:58;;;;;;;5.57;5.05;;;20.90;82.00;;;;;;5070164;28;20570;-72
2022/05/25 07:34:55;;;;;;;7.28;4.35;;;21.00;82.10;;;;;;5072921;28;20625;-73
2022/05/25 07:37:23;;;;;;;4.75;4.30;;;21.00;82.00;;;;;;5090845;28;20275;-72
2022/05/25 07:39:54;;;;;;;4.55;4.07;;;21.10;82.10;;;;;;5070212;28;20187;-72
2022/05/25 07:42:21;;;;;;;5.93;4.80;;;21.10;82.40;;;;;;5069409;28;20830;-73
2022/05/25 07:44:58;;;;;;;5.63;5.13;;;21.20;81.70;;;;;;5071847;28;20745;-73
2022/05/25 07:47:26;;;;;;;7.05;4.95;;;21.30;80.70;;;;;;5068438;28;20182;-72
2022/05/25 07:49:52;;;;;;;5.50;5.05;;;21.30;80.70;;;;;;5073691;28;20245;-73
2022/05/25 07:52:19;;;;;;;5.10;4.70;;;21.40;80.80;;;;;;5072568;28;20187;-73
2022/05/25 07:54:45;;;;;;;5.07;4.60;;;21.50;81.20;;;;;;5069579;28;20495;-72
2022/05/25 07:57:11;;;;;;;6.35;4.82;;;21.60;80.10;;;;;;5071652;28;20209;-71
2022/05/25 07:59:38;;;;;;;4.75;4.15;;;21.70;79.60;;;;;;5067297;28;20190;-72
2022/05/25 08:07:48;;;;;;;5.03;3.72;;;21.90;80.50;;;;;;5068230;28;20607;-72
2022/05/25 08:10:18;;;;;;;3.75;3.50;;;22.00;80.40;;;;;;5069499;28;20197;-72
2022/05/25 08:12:45;;;;;;;4.80;4.28;;;22.10;80.50;;;;;;5072942;28;20191;-72
2022/05/25 08:15:12;;;;;;;3.95;3.80;;;22.20;79.70;;;;;;5068578;28;20598;-73
2022/05/25 08:17:38;;;;;;;4.60;4.30;;;22.40;79.80;;;;;;5072333;28;20210;-72
2022/05/25 08:20:05;;;;;;;4.85;4.55;;;22.40;79.90;;;;;;5059382;28;20573;-72
2022/05/25 08:22:31;;;;;;;6.15;4.43;;;22.60;79.60;;;;;;5070928;28;20170;-72
2022/05/25 08:24:57;;;;;;;4.05;3.83;;;;;;;;;;5072067;28;20182;-72
2022/05/25 08:27:23;;;;;;;4.03;3.72;;;;;;;;;;5066804;28;20590;-72
2022/05/25 08:29:49;;;;;;;4.22;3.92;;;22.80;79.30;;;;;;5073680;28;20179;-72
2022/05/25 08:32:15;;;;;;;3.95;3.75;;;22.90;79.00;;;;;;5073266;28;20711;-72
2022/05/25 08:34:41;;;;;;;4.00;3.83;;;23.00;79.50;;;;;;5070911;28;20188;-71
2022/05/25 08:37:07;;;;;;;3.95;3.75;;;23.20;79.30;;;;;;5068836;28;20605;-72
2022/05/25 08:39:33;;;;;;;4.55;4.25;;;23.30;79.50;;;;;;5067589;28;20293;-72
2022/05/25 08:42:05;;;;;;;4.20;3.90;;;23.40;79.20;;;;;;5072419;28;20914;-71
2022/05/25 08:44:32;;;;;;;3.83;3.67;;;23.50;79.30;;;;;;5068154;28;20679;-71
2022/05/25 08:47:03;;;;;;;4.43;4.07;;;23.70;79.00;;;;;;5069582;28;20190;-71
2022/05/25 08:49:32;;;;;;;6.47;4.55;;;23.80;78.60;;;;;;5070242;28;20176;-72
2022/05/25 08:52:01;;;;;;;3.83;3.63;;;23.90;78.00;;;;;;5057807;28;20274;-72
2022/05/25 08:54:29;;;;;;;4.70;4.20;;;24.10;77.90;;;;;;5070640;28;20574;-72
2022/05/25 08:56:55;;;;;;;5.38;4.82;;;;;;;;;;5064203;28;20611;-71
2022/05/25 08:59:30;;;;;;;5.32;4.88;;;24.30;75.30;;;;;;5074283;28;20182;-72
2022/05/25 09:02:21;;;;;;;4.40;4.22;;;24.40;76.40;;;;;;5072981;28;20209;-72
2022/05/25 09:04:47;;;;;;;3.92;3.60;;;;;;;;;;5070585;28;20206;-72
2022/05/25 09:07:39;;;;;;;7.22;5.03;;;24.60;74.70;;;;;;5072447;28;20186;-72
2022/05/25 09:10:07;;;;;;;7.25;4.85;;;24.80;74.30;;;;;;5079539;28;20182;-72
2022/05/25 09:12:43;;;;;;;4.80;4.32;;;24.80;73.80;;;;;;5066547;28;20262;-72
2022/05/25 09:15:18;;;;;;;4.57;4.03;;;25.00;75.10;;;;;;5067409;28;20222;-73
2022/05/25 09:18:10;;;;;;;4.50;4.30;;;25.00;75.20;;;;;;5066598;28;20213;-71
2022/05/25 09:20:42;;;;;;;6.25;4.57;;;25.20;75.10;;;;;;5092733;28;20186;-72
2022/05/25 09:23:09;;;;;;;5.32;4.82;;;25.30;73.20;;;;;;5066466;28;20186;-72
2022/05/25 09:25:36;;;;;;;7.85;4.45;;;25.50;74.80;;;;;;5061238;28;20179;-72
2022/05/25 09:28:11;;;;;;;4.57;4.32;;;25.60;74.60;;;;;;5061443;28;20274;-73
2022/05/25 09:30:40;;;;;;;7.30;4.53;;;25.80;74.20;;;;;;5055241;28;20656;-74
2022/05/25 09:33:20;;;;;;;4.35;4.07;;;26.00;73.00;;;;;;5060461;28;20274;-71
2022/05/25 09:35:53;;;;;;;5.53;4.90;;;26.20;73.30;;;;;;5066461;28;20205;-71
2022/05/25 09:38:29;;;;;;;7.45;4.63;;;26.30;73.50;;;;;;5068591;28;20830;-73
2022/05/25 09:40:56;;;;;;;6.70;5.43;;;26.50;72.00;;;;;;5067366;28;20193;-74
2022/05/25 09:43:24;;;;;;;4.40;4.07;;;26.60;72.10;;;;;;5065973;28;20214;-72
2022/05/25 09:46:03;;;;;;;6.32;5.80;;;26.70;71.00;;;;;;5063514;28;20186;-71
2022/05/25 09:48:32;;;;;;;5.57;5.25;;;26.90;70.50;;;;;;5052845;28;20187;-72
2022/05/25 09:51:03;;;;;;;5.97;5.30;;;27.00;70.40;;;;;;5055088;28;20187;-71
2022/05/25 09:53:39;;;;;;;5.07;4.60;;;27.30;70.30;;;;;;5063367;28;20187;-71
2022/05/25 09:56:13;;;;;;;6.10;5.03;;;27.50;69.50;;;;;;5061418;28;20186;-72
2022/05/25 09:58:44;;;;;;;11.40;5.40;;;27.80;69.90;;;;;;5059904;28;20256;-73
2022/05/25 10:01:27;;;;;;;6.13;5.47;;;27.90;68.30;;;;;;5054477;28;20262;-73
2022/05/25 10:03:54;;;;;;;5.20;4.68;;;28.00;67.70;;;;;;5058845;28;20301;-73
2022/05/25 10:06:20;;;;;;;6.03;5.35;;;;;;;;;;5058063;28;20182;-73
2022/05/25 10:09:09;;;;;;;6.82;5.32;;;28.40;67.20;;;;;;5057976;28;20178;-72
2022/05/25 10:11:43;;;;;;;5.53;5.05;;;28.60;66.80;;;;;;5056645;28;22115;-72
2022/05/25 10:14:18;;;;;;;5.43;5.03;;;28.80;66.20;;;;;;5067676;28;20228;-72
2022/05/25 10:16:44;;;;;;;8.27;5.18;;;29.30;65.90;;;;;;5056809;28;20246;-73
2022/05/25 10:19:17;;;;;;;6.05;5.47;;;29.60;64.00;;;;;;5063763;28;20245;-72
2022/05/25 10:21:54;;;;;;;5.57;5.07;;;30.00;63.20;;;;;;5075507;28;20225;-72
2022/05/25 10:24:20;;;;;;;5.28;4.57;;;;;;;;;;5060547;28;20185;-72
2022/05/25 10:26:50;;;;;;;7.55;5.57;;;31.10;61.90;;;;;;5067736;28;20665;-73
2022/05/25 10:38:29;;;;;;;4.65;4.35;;;33.70;57.00;;;;;;5065856;28;20268;-73
2022/05/25 10:40:57;;;;;;;5.30;4.78;;;34.00;56.80;;;;;;5066800;28;20744;-73
2022/05/25 10:43:30;;;;;;;7.82;4.82;;;34.40;55.40;;;;;;5059921;28;20182;-74
2022/05/25 10:46:01;;;;;;;11.13;5.10;;;34.50;55.10;;;;;;5067834;28;20184;-73
2022/05/25 10:48:40;;;;;;;5.95;4.90;;;34.80;56.80;;;;;;5062560;28;20190;-72
2022/05/25 10:51:13;;;;;;;4.88;4.45;;;35.10;55.50;;;;;;5064000;28;20621;-73
2022/05/25 10:57:16;;;;;;;4.82;4.13;;;36.10;54.50;;;;;;5063083;28;20258;-72
2022/05/25 11:00:07;;;;;;;5.53;4.45;;;36.50;55.10;;;;;;5068961;28;20205;-72
2022/05/25 11:02:33;;;;;;;5.18;4.75;;;;;;;;;;5067069;28;20214;-71
2022/05/25 11:05:31;;;;;;;6.35;4.97;;;37.20;52.60;;;;;;5060266;28;20214;-72
2022/05/25 11:08:23;;;;;;;6.30;4.55;;;37.70;51.90;;;;;;5068495;28;20215;-74
2022/05/25 11:11:17;;;;;;;6.68;4.28;;;38.20;51.30;;;;;;5060815;28;20192;-72
2022/05/25 11:13:51;;;;;;;6.10;4.90;;;38.70;50.30;;;;;;5066635;28;20563;-73
2022/05/25 11:16:44;;;;;;;6.07;4.72;;;39.10;50.10;;;;;;5064412;28;20181;-73
2022/05/25 11:19:36;;;;;;;4.53;4.18;;;39.50;48.70;;;;;;5064025;28;20182;-72
2022/05/25 11:22:14;;;;;;;4.65;4.15;;;39.80;49.00;;;;;;4998184;28;20270;-72
2022/05/25 11:25:07;;;;;;;7.90;4.18;;;40.10;47.60;;;;;;5000489;28;20198;-72
2022/05/25 11:28:09;;;;;;;3.88;3.65;;;40.40;46.20;;;;;;4996143;28;20244;-72
2022/05/25 11:30:46;;;;;;;4.75;3.30;;;40.70;46.80;;;;;;5002099;28;20760;-72
2022/05/25 11:33:18;;;;;;;9.45;3.53;;;40.90;46.20;;;;;;4999030;28;20231;-72
2022/05/25 11:36:20;;;;;;;3.45;3.25;;;41.20;44.80;;;;;;5003891;28;20275;-72
2022/05/25 11:39:02;;;;;;;5.32;3.65;;;;;;;;;;5005717;28;20201;-72
2022/05/25 11:42:01;;;;;;;3.17;3.00;;;41.40;46.80;;;;;;5000407;28;20198;-72
2022/05/25 11:44:52;;;;;;;4.30;3.25;;;41.50;44.00;;;;;;5000089;28;20264;-72
2022/05/25 11:47:44;;;;;;;3.58;3.30;;;41.90;44.50;;;;;;5016587;28;20242;-72
2022/05/25 11:50:25;;;;;;;6.07;3.50;;;41.90;43.30;;;;;;4999014;28;20701;-72
2022/05/25 11:53:23;;;;;;;5.80;3.45;;;41.90;43.60;;;;;;5006106;28;20203;-72
2022/05/25 11:56:06;;;;;;;5.55;2.85;;;42.30;44.50;;;;;;4975146;28;20768;-72
2022/05/25 11:58:57;;;;;;;2.35;2.20;;;42.50;43.90;;;;;;4988973;28;20229;-72
2022/05/25 12:01:37;;;;;;;5.40;2.17;;;42.20;44.40;;;;;;5030936;28;20221;-72
2022/05/25 12:04:40;;;;;;;5.13;1.80;;;42.00;40.60;;;;;;5013294;28;20183;-72
2022/05/25 12:07:18;;;;;;;2.85;1.45;;;42.00;39.70;;;;;;5029716;28;20718;-72
2022/05/25 12:09:44;;;;;;;2.92;1.50;;;42.20;40.50;;;;;;5032794;28;20629;-72
2022/05/25 12:12:25;;;;;;;2.38;1.42;;;42.10;39.40;;;;;;5031256;28;20187;-72
2022/05/25 12:15:23;;;;;;;3.92;2.13;;;41.40;39.10;;;;;;5032046;28;20196;-72
2022/05/25 12:18:01;;;;;;;4.32;1.25;;;40.90;41.90;;;;;;5028894;28;20839;-72
2022/05/25 12:20:33;;;;;;;6.63;1.70;;;40.90;41.20;;;;;;5012327;28;20192;-72
2022/05/25 12:23:05;;;;;;;2.70;1.45;;;40.70;42.40;;;;;;5028824;28;20346;-72
2022/05/25 12:25:33;;;;;;;9.40;1.38;;;40.60;41.20;;;;;;5031411;28;20256;-72
2022/05/25 12:28:02;;;;;;;1.70;1.60;;;40.30;41.00;;;;;;5029676;28;20628;-72
2022/05/25 12:30:39;;;;;;;1.60;1.40;;;40.40;43.90;;;;;;5015169;28;20187;-73
2022/05/25 12:33:09;;;;;;;3.65;1.38;;;40.40;40.40;;;;;;5055278;28;20198;-72
2022/05/25 12:35:36;;;;;;;2.65;1.35;;;40.30;43.80;;;;;;5054695;28;20629;-72
2022/05/25 12:38:06;;;;;;;2.38;1.95;;;40.40;41.00;;;;;;5055183;28;20220;-72
2022/05/25 12:40:47;;;;;;;1.75;1.23;;;40.90;41.40;;;;;;5059321;28;20748;-73
2022/05/25 12:43:45;;;;;;;1.92;1.45;;;41.00;41.80;;;;;;5069596;28;20182;-73
2022/05/25 12:48:58;;;;;;;3.10;1.20;;;40.90;40.30;;;;;;5067103;28;20264;-73
2022/05/25 12:51:36;;;;;;;5.28;1.08;;;40.90;39.40;;;;;;5067987;28;20181;-72
2022/05/25 12:54:06;;;;;;;2.67;1.40;;;40.90;40.80;;;;;;5049432;28;20248;-73
2022/05/25 12:56:37;;;;;;;3.97;1.55;;;40.80;40.70;;;;;;5060363;28;20229;-73
2022/05/25 12:59:26;;;;;;;3.33;1.33;;;40.90;41.10;;;;;;5064716;28;20187;-73
2022/05/25 13:02:21;;;;;;;2.00;1.08;;;40.90;40.50;;;;;;5063763;28;20197;-73
2022/05/25 13:04:53;;;;;;;6.20;1.17;;;41.10;41.00;;;;;;5037783;28;20206;-73
2022/05/25 13:07:39;;;;;;;7.05;1.67;;;41.10;40.10;;;;;;5045727;28;20244;-72
2022/05/25 13:10:30;;;;;;;2.47;1.30;;;41.00;38.90;;;;;;5037753;28;20770;-72
2022/05/25 13:12:56;;;;;;;3.53;1.40;;;40.90;39.10;;;;;;4984116;28;20199;-74
2022/05/25 13:15:22;;;;;;;3.70;1.45;;;41.00;39.90;;;;;;4988650;28;20209;-73
2022/05/25 13:17:54;;;;;;;4.50;1.40;;;40.90;40.90;;;;;;4982963;28;20232;-74
2022/05/25 13:20:30;;;;;;;7.85;2.03;;;40.70;40.80;;;;;;4984426;28;20246;-74
2022/05/25 13:23:01;;;;;;;6.85;1.73;;;40.30;41.70;;;;;;4974490;28;20212;-74
2022/05/25 13:25:59;;;;;;;1.05;1.02;;;39.90;42.20;;;;;;4985634;28;20185;-74
2022/05/25 13:28:49;;;;;;;6.20;1.13;;;39.20;41.50;;;;;;4981052;28;20197;-74
2022/05/25 13:31:47;;;;;;;4.40;1.30;;;38.70;42.20;;;;;;4966100;28;20228;-74
2022/05/25 13:34:16;;;;;;;2.20;1.65;;;38.50;43.30;;;;;;4920115;29;20211;-73
2022/05/25 13:36:51;;;;;;;4.50;1.40;;;38.50;42.90;;;;;;4917816;29;20196;-73
2022/05/25 13:39:21;;;;;;;11.55;2.08;;;38.10;43.20;;;;;;4919759;29;20249;-74
2022/05/25 13:41:54;;;;;;;1.23;1.15;;;37.80;42.60;;;;;;4932525;28;20202;-74
2022/05/25 13:44:25;;;;;;;4.70;1.45;;;37.50;43.40;;;;;;4947393;28;20635;-73
2022/05/25 13:46:55;;;;;;;6.50;1.80;;;37.30;43.90;;;;;;4946307;28;20198;-74
2022/05/25 13:49:21;;;;;;;6.63;1.40;;;;;;;;;;4965148;28;20200;-74
2022/05/25 13:51:48;;;;;;;2.15;1.60;;;37.00;43.30;;;;;;5003564;28;20355;-73
2022/05/25 13:54:32;;;;;;;3.63;1.77;;;36.80;45.40;;;;;;5000988;28;20192;-73
2022/05/25 13:56:57;;;;;;;4.53;1.33;;;36.70;46.10;;;;;;4996597;28;20252;-73
2022/05/25 13:59:31;;;;;;;4.60;1.60;;;36.60;45.80;;;;;;4998713;28;20257;-73